Chiniot Weather



Chiniot's Current Weather

Temprature 24.21o clear sky

clear sky

Rain: 0 %

Min Temprature24.21o
Max Temprature24.21o
Humidity60
Wind Speed5.27 m/h
Sun Rise05:06:40
Sun Set19:03:26
Current Time: 24-May-2022 07:01:36
Lat/Lon: 31.72, 72.9789




Chiniot's Geo Location



Chiniot's Weather Forecast

Time Overall Temp Min Temp Max Temp Humidity Wind Speed Rain
24-May-2022 (Tue)
08:00:00 clear sky 25.970 25.970 25.970 53 5.46 m/h 0 %
11:00:00 clear sky 27.420 27.420 30.310 48 4.54 m/h 0 %
14:00:00 clear sky 31.100 31.100 33.660 35 3.66 m/h 0 %
17:00:00 clear sky 33.930 33.930 33.930 23 2.16 m/h 0 %
20:00:00 clear sky 30.810 30.810 30.810 30 0.9 m/h 0 %
23:00:00 clear sky 29.010 29.010 29.010 33 1.69 m/h 0 %
25-May-2022 (Wed)
02:00:00 clear sky 28.180 28.180 28.180 34 0.89 m/h 0 %
05:00:00 clear sky 27.050 27.050 27.050 36 1.73 m/h 0 %
08:00:00 clear sky 31.540 31.540 31.540 28 2.74 m/h 0 %
11:00:00 clear sky 35.990 35.990 35.990 19 2.58 m/h 0 %
14:00:00 clear sky 38.580 38.580 38.580 16 0.6 m/h 0 %
17:00:00 clear sky 38.230 38.230 38.230 16 1 m/h 0 %
20:00:00 clear sky 34.630 34.630 34.630 21 2.82 m/h 0 %
23:00:00 clear sky 32.730 32.730 32.730 24 2.56 m/h 0 %
26-May-2022 (Thu)
02:00:00 clear sky 31.330 31.330 31.330 25 2.02 m/h 0 %
05:00:00 clear sky 30.050 30.050 30.050 27 1.44 m/h 0 %
08:00:00 clear sky 34.740 34.740 34.740 21 2.56 m/h 0 %
11:00:00 clear sky 39.260 39.260 39.260 15 2.69 m/h 0 %
14:00:00 clear sky 41.960 41.960 41.960 12 2.18 m/h 0 %
17:00:00 clear sky 42.140 42.140 42.140 11 2.58 m/h 0 %
20:00:00 clear sky 37.290 37.290 37.290 15 3.43 m/h 0 %
23:00:00 clear sky 34.800 34.800 34.800 20 3.45 m/h 0 %
27-May-2022 (Fri)
02:00:00 clear sky 33.200 33.200 33.200 21 3.06 m/h 0 %
05:00:00 clear sky 31.680 31.680 31.680 23 2.17 m/h 0 %
08:00:00 clear sky 36.470 36.470 36.470 18 2.94 m/h 0 %
11:00:00 clear sky 42.110 42.110 42.110 13 3.47 m/h 0 %
14:00:00 clear sky 45.170 45.170 45.170 10 3.46 m/h 0 %
17:00:00 clear sky 45.040 45.040 45.040 12 3.45 m/h 0 %
20:00:00 clear sky 39.380 39.380 39.380 19 3.83 m/h 0 %
23:00:00 clear sky 37.020 37.020 37.020 23 4.37 m/h 0 %
28-May-2022 (Sat)
02:00:00 clear sky 35.160 35.160 35.160 25 4.91 m/h 0 %
05:00:00 clear sky 32.810 32.810 32.810 29 4.45 m/h 0 %
08:00:00 clear sky 37.150 37.150 37.150 12 4.54 m/h 0 %
11:00:00 clear sky 42.060 42.060 42.060 7 3.75 m/h 0 %
14:00:00 clear sky 45.460 45.460 45.460 6 4.39 m/h 0 %
17:00:00 clear sky 45.270 45.270 45.270 5 3.01 m/h 0 %
20:00:00 clear sky 39.490 39.490 39.490 8 4.05 m/h 0 %
23:00:00 clear sky 34.960 34.960 34.960 21 10.15 m/h 0 %
29-May-2022 (Sun)
02:00:00 clear sky 33.020 33.020 33.020 26 7.94 m/h 0 %
05:00:00 clear sky 30.590 30.590 30.590 35 4.62 m/h 0 %


Chiniot's Tourist Spots

Historical Places in Chiniot

Famous Cities (61)